createdAt,value
2019-02-04T00:01:49.135Z,90.95
2019-02-04T00:07:53.787Z,92.32
2019-02-04T00:13:59.723Z,92.73
2019-02-04T00:20:07.575Z,92.20
2019-02-04T00:26:13.571Z,91.30
2019-02-04T00:32:18.273Z,90.93
2019-02-04T00:38:23.191Z,91.09
2019-02-04T00:44:27.852Z,90.44
2019-02-04T00:50:32.675Z,91.32
2019-02-04T00:56:37.362Z,91.42
2019-02-04T01:02:42.278Z,91.46
2019-02-04T01:08:47.599Z,90.76
2019-02-04T01:14:52.307Z,90.65
2019-02-04T01:20:56.959Z,90.84
2019-02-04T01:27:01.648Z,90.80
2019-02-04T01:33:06.352Z,91.51
2019-02-04T01:39:11.242Z,91.52
2019-02-04T01:45:15.983Z,91.26
2019-02-04T01:51:20.562Z,91.81
2019-02-04T01:57:25.485Z,92.40
2019-02-04T02:03:30.957Z,93.23
2019-02-04T02:09:35.756Z,93.09
2019-02-04T02:15:41.162Z,93.63
2019-02-04T02:21:45.913Z,93.46
2019-02-04T02:27:50.645Z,92.76
2019-02-04T02:33:55.812Z,93.09
2019-02-04T02:40:00.518Z,94.10
2019-02-04T02:46:05.725Z,94.84
2019-02-04T02:52:11.229Z,94.66
2019-02-04T02:58:15.889Z,94.37
2019-02-04T03:04:20.527Z,94.64
2019-02-04T03:10:28.964Z,94.35
2019-02-04T03:16:33.666Z,93.90
2019-02-04T03:22:38.763Z,93.71
2019-02-04T03:28:43.634Z,93.27
2019-02-04T03:34:48.252Z,92.03
2019-02-04T03:40:53.081Z,92.34
2019-02-04T03:46:57.640Z,91.84
2019-02-04T03:53:05.459Z,90.65
2019-02-04T03:59:10.235Z,90.44
2019-02-04T04:05:15.198Z,90.87
2019-02-04T04:11:20.041Z,91.20
2019-02-04T04:17:24.668Z,91.68
2019-02-04T04:23:30.335Z,92.58
2019-02-04T04:29:35.065Z,92.89
2019-02-04T04:35:40.138Z,93.94
2019-02-04T04:41:44.943Z,94.69
2019-02-04T04:47:49.736Z,94.53
2019-02-04T04:53:54.566Z,94.35
2019-02-04T04:59:59.604Z,93.98
2019-02-04T05:06:04.323Z,93.70
2019-02-04T05:12:09.254Z,93.22
2019-02-04T05:18:17.596Z,92.91
2019-02-04T05:24:22.304Z,92.64
2019-02-04T05:30:27.228Z,91.52
2019-02-04T05:36:32.299Z,91.39
2019-02-04T05:42:37.095Z,91.03
2019-02-04T05:48:49.160Z,90.59
2019-02-04T05:54:49.226Z,91.60
2019-02-04T06:00:53.936Z,91.81
2019-02-04T06:07:00.176Z,91.97
2019-02-04T06:13:04.952Z,91.71
2019-02-04T06:19:11.877Z,91.64
2019-02-04T06:25:16.452Z,91.44
2019-02-04T06:31:22.917Z,91.30
2019-02-04T06:37:27.650Z,90.77
2019-02-04T06:43:32.668Z,90.92
2019-02-04T06:49:37.591Z,91.03
2019-02-04T06:55:42.676Z,90.84
2019-02-04T07:01:47.390Z,90.50
2019-02-04T07:07:51.942Z,90.50
2019-02-04T07:13:56.509Z,90.18
2019-02-04T07:20:02.007Z,90.11
2019-02-04T07:26:07.016Z,89.94
2019-02-04T07:32:12.240Z,89.85
2019-02-04T07:38:16.895Z,89.03
2019-02-04T07:44:24.848Z,88.42
2019-02-04T07:50:29.557Z,88.45
2019-02-04T07:56:34.110Z,87.83
2019-02-04T08:02:38.942Z,87.43
2019-02-04T08:08:44.114Z,87.10
2019-02-04T08:14:48.712Z,86.99
2019-02-04T08:20:54.140Z,86.69
2019-02-04T08:26:58.996Z,87.13
2019-02-04T08:33:03.885Z,87.46
2019-02-04T08:39:09.002Z,87.02
2019-02-04T08:45:15.264Z,86.61
2019-02-04T08:51:20.046Z,86.64
2019-02-04T08:57:24.729Z,86.77
2019-02-04T09:03:29.357Z,87.16
2019-02-04T09:09:34.353Z,87.01
2019-02-04T09:15:39.478Z,86.68
2019-02-04T09:21:44.115Z,85.41
2019-02-04T09:27:48.823Z,85.40
2019-02-04T09:33:53.486Z,83.88
2019-02-04T09:39:58.059Z,82.36
2019-02-04T09:46:05.811Z,82.33
2019-02-04T09:52:14.094Z,81.26
2019-02-04T09:58:18.982Z,79.76
2019-02-04T10:04:23.678Z,79.34
2019-02-04T10:10:31.245Z,77.15
2019-02-04T10:16:36.075Z,76.08
2019-02-04T10:22:40.949Z,74.74
2019-02-04T10:28:46.066Z,73.12
2019-02-04T10:34:51.711Z,70.26
2019-02-04T10:40:56.418Z,71.00
2019-02-04T10:47:01.139Z,69.42
2019-02-04T10:53:07.657Z,68.98
2019-02-04T10:59:12.623Z,67.68
2019-02-04T11:05:24.451Z,68.05
2019-02-04T11:11:29.176Z,67.73
2019-02-04T11:17:33.950Z,66.87
2019-02-04T11:23:40.546Z,66.22
2019-02-04T11:29:45.243Z,66.22
2019-02-04T11:35:50.098Z,65.39
2019-02-04T11:41:54.791Z,64.59
2019-02-04T11:48:00.176Z,64.42
2019-02-04T11:54:05.029Z,62.08
2019-02-04T12:00:19.725Z,62.68
2019-02-04T12:06:24.298Z,61.02
2019-02-04T12:12:30.124Z,59.70
2019-02-04T12:18:34.896Z,58.14
2019-02-04T12:24:40.111Z,58.71
2019-02-04T12:30:45.577Z,58.62
2019-02-04T12:36:50.223Z,57.10
2019-02-04T12:42:54.992Z,56.53
2019-02-04T12:48:59.619Z,55.50
2019-02-04T12:55:06.630Z,54.99
2019-02-04T13:01:11.904Z,54.36
2019-02-04T13:07:16.705Z,55.57
2019-02-04T13:13:21.459Z,56.09
2019-02-04T13:19:26.047Z,55.59
2019-02-04T13:25:31.419Z,54.90
2019-02-04T13:31:35.983Z,55.85
2019-02-04T13:37:40.848Z,55.73
2019-02-04T13:43:45.897Z,55.23
2019-02-04T13:49:50.518Z,55.22
2019-02-04T13:55:55.152Z,54.97
2019-02-04T14:01:59.779Z,55.49
2019-02-04T14:08:06.205Z,55.30
2019-02-04T14:14:10.955Z,55.20
2019-02-04T14:20:26.749Z,54.95
2019-02-04T14:26:31.374Z,54.75
2019-02-04T14:32:36.065Z,55.58
2019-02-04T14:38:40.898Z,55.35
2019-02-04T14:44:48.804Z,55.57
2019-02-04T14:51:23.008Z,55.09
2019-02-04T14:58:00.710Z,56.61
2019-02-04T15:04:21.452Z,57.77
2019-02-04T15:10:36.231Z,57.06
2019-02-04T15:16:48.031Z,57.84
2019-02-04T15:23:07.497Z,58.23
2019-02-04T15:29:16.784Z,58.10
2019-02-04T15:36:06.324Z,58.51
2019-02-04T15:42:32.385Z,58.69
2019-02-04T15:48:44.059Z,58.99
2019-02-04T15:54:48.803Z,60.02
2019-02-04T16:00:53.746Z,60.61
2019-02-04T16:06:58.369Z,62.55
2019-02-04T16:13:03.726Z,64.85
2019-02-04T16:19:08.285Z,65.60
2019-02-04T16:25:14.962Z,65.36
2019-02-04T16:31:19.552Z,64.19
2019-02-04T16:37:24.455Z,63.79
2019-02-04T16:43:29.465Z,61.50
2019-02-04T16:49:34.134Z,61.37
2019-02-04T16:55:38.818Z,62.12
2019-02-04T17:01:43.621Z,63.24
2019-02-04T17:07:48.897Z,62.43
2019-02-04T17:13:53.540Z,61.35
2019-02-04T17:19:58.180Z,62.58
2019-02-04T17:26:02.817Z,63.90
2019-02-04T17:32:07.519Z,62.39
2019-02-04T17:38:12.213Z,61.24
2019-02-04T17:44:17.073Z,60.74
2019-02-04T17:50:23.257Z,61.75
2019-02-04T17:56:28.028Z,63.95
2019-02-04T18:02:32.590Z,64.41
2019-02-04T18:08:37.158Z,65.38
2019-02-04T18:14:43.019Z,67.08
2019-02-04T18:20:47.708Z,68.32
2019-02-04T18:26:52.526Z,70.38
2019-02-04T18:32:57.352Z,70.89
2019-02-04T18:39:02.420Z,71.65
2019-02-04T18:45:14.535Z,71.93
2019-02-04T18:51:21.627Z,72.02
2019-02-04T18:57:26.830Z,72.29
2019-02-04T19:03:31.531Z,71.70
2019-02-04T19:09:36.101Z,72.92
2019-02-04T19:15:40.936Z,73.06
2019-02-04T19:21:45.686Z,72.99
2019-02-04T19:27:51.718Z,72.98
2019-02-04T19:33:56.416Z,72.71
2019-02-04T19:40:01.227Z,73.46
2019-02-04T19:46:09.285Z,74.25
2019-02-04T19:52:14.134Z,74.58
2019-02-04T19:58:19.020Z,74.11
2019-02-04T20:04:23.691Z,73.69
2019-02-04T20:10:33.997Z,72.71
2019-02-04T20:16:40.537Z,73.29
2019-02-04T20:22:45.387Z,73.72
2019-02-04T20:28:50.011Z,73.41
2019-02-04T20:34:54.640Z,73.13
2019-02-04T20:40:59.348Z,71.44
2019-02-04T20:47:04.212Z,72.21
2019-02-04T20:53:08.858Z,71.85
2019-02-04T20:59:13.655Z,71.70
2019-02-04T21:05:18.663Z,71.13
2019-02-04T21:11:23.289Z,69.22
2019-02-04T21:17:29.253Z,69.83
2019-02-04T21:23:33.872Z,69.12
2019-02-04T21:29:38.484Z,69.08
2019-02-04T21:35:43.245Z,69.44
2019-02-04T21:41:48.205Z,69.34
2019-02-04T21:47:53.636Z,68.69
2019-02-04T21:53:58.526Z,67.43
2019-02-04T22:00:04.987Z,66.38
2019-02-04T22:06:11.697Z,65.97
2019-02-04T22:12:16.385Z,67.76
2019-02-04T22:18:20.949Z,68.53
2019-02-04T22:24:25.893Z,66.91
2019-02-04T22:30:31.637Z,65.63
2019-02-04T22:36:36.253Z,65.20
2019-02-04T22:42:41.121Z,63.35
2019-02-04T22:48:46.026Z,63.10
2019-02-04T22:54:50.578Z,61.46
2019-02-04T23:01:05.582Z,61.13
